KDMA/DMA METAR and TAF weather

Enter ICAO airport designator
Station Type Date Time Source
KDMA METAR 2020/07/05 02:58 UTC NOAA

KDMA 050258Z AUTO 33008KT 10SM CLR 36/09 A2992 RMK AO2 SLP080 T03590086 53009 FZRANO $


Station Type Date Time Source
KDMA Decoded METAR 2020/07/05 02:58 UTC NOAA

Davis-Monthan Air Force Base, AZ, United States (KDMA) 32-10N 110-53W
Jul 04, 2020 - 10:58 PM EDT / 2020.07.05 0258 UTC
Wind: from the NNW (330 degrees) at 9 MPH (8 KT):0
Visibility: 10 mile(s):0
Sky conditions: clear
Temperature: 96.6 F (35.9 C)
Dew Point: 47.5 F (8.6 C)
Relative Humidity: 18%
Pressure (altimeter): 29.92 in. Hg (1013 hPa)
Pressure tendency: 0.03 inches (0.9 hPa) higher than three hours ago
ob: KDMA 050258Z AUTO 33008KT 10SM CLR 36/09 A2992 RMK AO2 SLP080 T03590086 53009 FZRANO
cycle: 3

Station Type Date Time Source
KDMA TAF 2020/07/04 22:19 UTC NOAA

TAF KDMA 042203Z 0422/0604 29012KT 9999 FEW090 QNH2989INS
TEMPO 0422/0503 32012G18KT
BECMG 0502/0503 30009KT 9999 FEW090 QNH2993INS
BECMG 0505/0506 VRB06KT 9999 SKC QNH2997INS
BECMG 0519/0520 29012KT 9999 FEW090 QNH2984INS TX40/0423Z TN21/0513Z

Example: see airport list